Main page
METAR-TAF:

METAR-TAF

Airports :

Victoria Regional Airport

Victoria, Texas, United States

latitude: 28-51-45N, longitude: 096-55-47W, elevation: 115 ft

Current weather observation

The report was made 25 minutes ago, at 11:12 UTC
Wind 6 mph from the Northeast
Temperature 75°F
Humidity 94%
Pressure 30.04 in. Hg
Visibility: 6 miles
Scattered clouds at a height of 2400 ft
mist

METAR: KVCT 221112Z AUTO 04005KT 6SM BR SCT024 24/23 A3004 RMK AO2 T02440233

Time: 06:37 (11:37 UTC)

Forecast

The report was made 6 hours and 17 minutes ago, at 05:20 UTC
Forecast valid from 22 at 06 UTC to 23 at 06 UTC
Wind 6 mph from variable directions
Visibility: 6 miles
Scattered clouds at a height of 25000 ft
mist
Temporary
from 22 at 09 UTC to 22 at 13 UTC
Visibility: 2 miles
mist
From 22 at 1500 UTC
Wind 12 mph from the East
Visibility: 6 miles
Broken clouds at a height of 25000 ft

TAF: KVCT 220520Z 2206/2306 VRB05KT 6SM BR SCT250 TEMPO 2209/2213 2SM BR FM221500 09010KT P6SM BKN250

Weather observations and forecasts of more than 4000 airports (METAR and TAF reports).

The available stations are represented by yellow and red dots on the map.

Hover mouse over dot to see the name of the station.

Then click to see weather observations and forecasts.

To change the map : click on the green buttons with a black cross to zoom in, on the green button with a dash to zoom out, or on the green arrows for adjacent maps.


METAR-TAF: